• Join FlightAware (Why Join?)
  • Login
  • US Flag 
05:40PM EDT


 

Airport Tracker/Info


-or-


 

Live Flight TrackerFlight Track Log ✈ CTL13 ✈ 28-Jun-2013 ✈ KBKL - KEYE

Flight Track Log - Related Links

Times and Time Zones

All times are in EDT time to prevent confusion due to time zone crossing. See the CTL13 flight status page for this flight to view local times or setup timezone preferences in your user account.

Time Position Orientation Groundspeed Altitude Reporting Facility
EDT Latitude Longitude Course Direction KTS MPH feet Rate Location/Type
06:28PM 41.5083 -81.7033 321° Northwest 130 150 900  Level Cleveland Center
06:29PM 41.5372 -81.7344 321° Northwest 134 154 1,800 720 Climbing Cleveland Center
06:30PM 41.5642 -81.7625 322° Northwest 146 168 2,500 540 Climbing Cleveland Center
06:31PM 41.5781 -81.8183 288° West 144 166 3,000 240 Climbing Cleveland Center
06:32PM 41.5692 -81.8764 258° West 170 196 3,100  Climbing Cleveland Center
06:33PM 41.5600 -81.9400 259° West 161 185 3,000 -60 Descending Cleveland Center
06:34PM 41.5489 -81.9897 253° West 164 189 3,000  Level Cleveland Center
06:35PM 41.5297 -82.0394 243° Southwest 162 186 3,100  Climbing Cleveland Center
06:36PM 41.5122 -82.0889 245° Southwest 160 184 3,000  Descending Cleveland Center
06:37PM 41.4886 -82.1383 237° Southwest 159 183 3,100  Climbing Cleveland Center
06:38PM 41.4672 -82.1903 241° Southwest 161 185 3,100  Level Cleveland Center
06:39PM 41.4497 -82.2425 246° West 162 186 3,100 -60 Level Cleveland Center
06:41PM 41.3864 -82.3181 222° Southwest  Level FlightAware Approximate
06:47PM 41.2556 -82.6481 238° Southwest 166 191 3,000  Level Indianapolis Center
06:48PM 41.2534 -82.6800 245° Southwest  Level Estimated
06:48PM 41.2281 -82.6986 234° Southwest 167 192 3,000  Level Indianapolis Center
06:49PM 41.2307 -82.7289 238° Southwest  Level FlightAware Approximate
06:49PM 41.2056 -82.7506 240° Southwest 166 191 3,000  Level Indianapolis Center
06:50PM 41.2079 -82.7778 238° Southwest  Level FlightAware Approximate
06:50PM 41.1761 -82.7964 230° Southwest 162 186 3,000  Level Indianapolis Center
06:51PM 41.1851 -82.8266 238° Southwest  Level FlightAware Approximate
06:51PM 41.1414 -82.8342 219° Southwest 160 184 3,000  Level Indianapolis Center
06:52PM 41.1623 -82.8754 238° Southwest  Level FlightAware Approximate
06:52PM 41.1131 -82.8733 226° Southwest 154 177 3,000  Level Indianapolis Center
06:53PM 41.0978 -82.9319 251° West 146 168 3,000  Level Indianapolis Center
06:54PM 41.0714 -82.9744 231° Southwest 144 166 3,000  Level Indianapolis Center
06:55PM 41.0425 -83.0158 227° Southwest 147 169 3,000  Level Indianapolis Center
06:56PM 41.0169 -83.0581 231° Southwest 147 169 3,000  Level Indianapolis Center
06:57PM 40.9925 -83.0972 230° Southwest 142 163 3,000  Level Indianapolis Center
06:58PM 40.9800 -83.1469 252° West 141 162 3,000  Level Indianapolis Center
06:59PM 40.9642 -83.1953 247° West 142 163 3,000  Level Indianapolis Center
07:00PM 40.9456 -83.2472 245° Southwest 151 174 3,000  Level Indianapolis Center
07:01PM 40.9264 -83.3003 244° Southwest 157 181 3,000  Level Indianapolis Center
07:02PM 40.9044 -83.3642 246° West 161 185 3,000  Level Indianapolis Center
07:03PM 40.8867 -83.4206 247° West 164 189 3,000  Level Indianapolis Center
07:04PM 40.8686 -83.4806 248° West 166 191 3,000  Level Indianapolis Center
07:05PM 40.8508 -83.5386 248° West 168 193 3,000  Level Indianapolis Center
07:06PM 40.8336 -83.5958 248° West 168 193 3,100  Climbing Indianapolis Center
07:07PM 40.8161 -83.6536 248° West 168 193 3,000 -60 Descending Indianapolis Center
07:08PM 40.7975 -83.7114 247° West 167 192 3,000  Level Indianapolis Center
07:10PM 40.7717 -83.7804 243° Southwest  Level FlightAware Approximate
07:16PM 40.6442 -84.1478 246° West 162 186 3,000  Level Indianapolis Center
07:17PM 40.6363 -84.1263 242° Southwest  Level FlightAware Approximate
07:18PM 40.6149 -84.2196 242° Southwest  Level FlightAware Approximate
07:18PM 40.6167 -84.1755 242° Southwest  Level FlightAware Approximate
07:19PM 40.5970 -84.2246 242° Southwest  Level FlightAware Approximate
07:20PM 40.5773 -84.2736 242° Southwest  Level FlightAware Approximate
07:21PM 40.5588 -84.3235 246° West  Level FlightAware Approximate
07:25PM 40.4866 -84.5693 244° Southwest  Level Estimated
07:26PM 40.4673 -84.6185 243° Southwest  Level FlightAware Approximate
07:27PM 40.4479 -84.6678 243° Southwest  Level FlightAware Approximate
07:28PM 40.4286 -84.7170 243° Southwest  Level FlightAware Approximate
07:29PM 40.4092 -84.7661 243° Southwest  Level FlightAware Approximate
07:30PM 40.3898 -84.8153 243° Southwest  Level FlightAware Approximate
07:31PM 40.3703 -84.8644 243° Southwest  Level FlightAware Approximate
07:32PM 40.3509 -84.9135 243° Southwest  Level FlightAware Approximate
07:33PM 40.3325 -84.9633 244° Southwest  Level Estimated
07:34PM 40.3139 -85.0129 244° Southwest  Level FlightAware Approximate
07:35PM 40.2953 -85.0625 244° Southwest  Level FlightAware Approximate
07:36PM 40.2766 -85.1121 244° Southwest  Level FlightAware Approximate
07:37PM 40.2580 -85.1616 244° Southwest  Level FlightAware Approximate
07:38PM 40.2393 -85.2111 244° Southwest  Level FlightAware Approximate
07:39PM 40.2206 -85.2606 244° Southwest  Level FlightAware Approximate
07:40PM 40.2019 -85.3100 244° Southwest  Level FlightAware Approximate
07:41PM 40.1831 -85.3595 244° Southwest  Level FlightAware Approximate
07:42PM 40.1643 -85.4089 244° Southwest  Level FlightAware Approximate
07:43PM 40.1455 -85.4582 244° Southwest  Level FlightAware Approximate
07:44PM 40.1267 -85.5076 244° Southwest  Level FlightAware Approximate
07:45PM 40.1079 -85.5569 243° Southwest  Level FlightAware Approximate
07:46PM 40.0890 -85.6062 243° Southwest  Level FlightAware Approximate
07:47PM 40.0701 -85.6555 243° Southwest  Level FlightAware Approximate
07:48PM 40.0513 -85.7047 243° Southwest  Level FlightAware Approximate
07:49PM 40.0323 -85.7539 243° Southwest  Level FlightAware Approximate
07:50PM 40.0134 -85.8031 243° Southwest  Level FlightAware Approximate
07:51PM 39.9944 -85.8522 243° Southwest  Level FlightAware Approximate
07:52PM 39.9754 -85.9014 243° Southwest  Level FlightAware Approximate
07:53PM 39.9565 -85.9505 243° Southwest  Level FlightAware Approximate
07:54PM 39.9374 -85.9995 243° Southwest  Level FlightAware Approximate
07:55PM 39.9184 -86.0486 243° Southwest  Level FlightAware Approximate
07:56PM 39.8993 -86.0976 243° Southwest  Level FlightAware Approximate
07:57PM 39.8819 -86.1477 247° West  Level Estimated
07:58PM 39.8635 -86.1971 244° Southwest  Level FlightAware Approximate
07:59PM 39.8466 -86.2474 90° East  Level Estimated
08:00PM 39.8167 -86.2833 90° East  Level FlightAware Approximate
08:01PM 39.8308 -86.2944 90° East  Level Estimated
08:02PM 39.8308 -86.2944 90° East  Level Estimated
08:03PM 39.8308 -86.2944 90° East  Level Estimated
08:04PM 39.8308 -86.2944 90° East  Level Estimated
08:05PM 39.8308 -86.2944 90° East  Level Estimated
08:06PM 39.8308 -86.2944 90° East  Level Estimated
08:07PM 39.8308 -86.2944 90° East  Level Estimated
08:08PM 39.8308 -86.2944 90° East  Level Estimated
08:09PM 39.8308 -86.2944 90° East  Level Estimated
08:10PM 39.8308 -86.2944 90° East  Level Estimated
08:11PM 39.8308 -86.2944 90° East  Level Estimated